ETSB

Buchel Airport

Germany
METAR ETSB 190656Z 26010KT 3500 -SHSN BR BKN005 BKN007CB 00/00 Q1006 BLACKYLO WHT TEMPO YLO
Observed Flight Rules
Jan-19 @ 06:56 UTC (18 minutes ago) Instrument Flight Rules
Wind Visibility Clouds Conditions
260° at 10 knots 3,492 meters
  • Broken at 500' AGL
  • Broken at 700' AGL
  • Light Snow
  • Mist
Temperatures Readings
Current 0°C / 32°F
Dewpoint 0°C / 32°F
Humidity 100%
Altimeter 29.7" Hg
Pressure 1006 hPa
Elevation 486
METAR ETSB 190656Z 26010KT 3500 -SHSN BR BKN005 BKN007CB 00/00 Q1006 BLACKYLO WHT TEMPO YLO
Observed Flight Rules
Jan-19 @ 06:56 UTC
(18 minutes ago)
IFR
Wind Visibility
260° at 10 knots 3,492 meters
Clouds
  • Broken at 500' AGL
  • Broken at 700' AGL
Conditions
  • Light Snow
  • Mist
Temperature Dewpoint
0°C / 32°F 0°C / 32°F
Humidity Altimeter Pressure
100% 29.7" Hg 1006 hPa